Huvudsida
METAR-TAF:

METAR-TAF

Flygplatser :

Brescia Ghedi, Italien

latitud: 45-25N, longitud: 010-17E, höjd: 102 m

Aktuellt väderrapport

Denna rapport gjordes för 1 timme och 23 minuter sedan, klockan 19:55 UTC
Vind 6 kt från ost
Temperatur 3°C
Fuktighet 87%
Tryck 1007 hPa
Sikt 10 km eller mer
Inga moln under 1 500 m eller inga cumulonimbus

METAR: LIPL 141955Z 10006KT CAVOK 03/01 Q1007 RMK SKC VIS MIN 9999 WIND THR31 /////KT WIND THR13 11006KT BLU

Tid: 22:18 (21:18 UTC)

Väderprognos

Denna rapport gjordes för 1 timme och 18 minuter sedan, klockan 20:00 UTC
Prognos gäller från 14 kl. 21 UTC till 15 kl. 06 UTC
Vind 3 kt varierande vindriktning
Sikt 10 km eller mer
Inga moln under 1 500 m eller inga cumulonimbus
Temporärt
från 15 kl. 00 UTC till 15 kl. 06 UTC
Sikt: 3000 m
fuktdis
Sannolikhet 30% :
Temporärt
från 15 kl. 01 UTC till 15 kl. 05 UTC
Sikt: 1500 m
grunt dimma

TAF: LIPL 142000Z 1421/1506 VRB03KT CAVOK TEMPO 1500/1506 3000 BR PROB30 TEMPO 1501/1505 1500 MIFG

Aktuella väderrapporter och prognoser från 4000 flygplatser (METAR- och TAF-rapporter).

De tillgängliga stationerna syns som gula och röda prickar på kartan.

För musen över prickarna för att se namnen på stationerna.

Klicka sedan för att få väderrapporter och prognoser.

För att ändra kartan: Klicka på de gröna knapparna med ett svart kors på för att zooma in; den gröna knappen med ett streck på för att zooma ut; eller på de gröna pilarna för angränsande kartor.


METAR-TAF: